Time;durP1;ratioP1;P1;durP2;ratioP2;P2;SDS_P1;SDS_P2;PMS_P1;PMS_P2;Temp;Humidity;BMP_temperature;BMP_pressure;BME280_temperature;BME280_humidity;BME280_pressure;Samples;Min_cycle;Max_cycle;Signal;HPM_P1;HPM_P2
2023/08/31 11:04:10;;;;;;;6.72;2.55;;;;;;;;;;5173264;27;20311;-83
2023/08/31 11:06:36;;;;;;;4.37;2.60;;;;;;;;;;5152756;27;20076;-84
2023/08/31 11:09:03;;;;;;;4.43;2.47;;;;;;;;;;5152373;27;20384;-84
2023/08/31 11:11:38;;;;;;;4.78;2.55;;;;;;;;;;5133884;27;20106;-84
2023/08/31 11:14:04;;;;;;;6.32;2.17;;;;;;;;;;5134033;27;20392;-83
2023/08/31 11:16:31;;;;;;;6.55;2.15;;;;;;;;;;5142021;27;20488;-83
2023/08/31 11:18:57;;;;;;;3.38;2.25;;;;;;;;;;5139535;27;20016;-84
2023/08/31 11:21:24;;;;;;;3.53;2.13;;;;;;;;;;5151046;27;20023;-84
2023/08/31 11:23:52;;;;;;;9.40;2.80;;;;;;;;;;5130449;27;20026;-83
2023/08/31 11:26:19;;;;;;;6.47;2.28;;;;;;;;;;5133837;27;20027;-83
2023/08/31 11:28:46;;;;;;;5.55;2.20;;;;;;;;;;5131865;27;20114;-82
2023/08/31 11:31:12;;;;;;;5.43;2.65;;;;;;;;;;5129756;27;20039;-83
2023/08/31 11:33:38;;;;;;;6.43;2.05;;;;;;;;;;5152186;27;20057;-83
2023/08/31 11:36:04;;;;;;;4.20;2.15;;;;;;;;;;5152268;27;20045;-84
2023/08/31 11:38:32;;;;;;;3.60;2.05;;;;;;;;;;5152400;27;20015;-83
2023/08/31 11:40:59;;;;;;;3.47;1.98;;;;;;;;;;5133586;27;20053;-83
2023/08/31 11:43:25;;;;;;;5.80;2.13;;;;;;;;;;5133499;27;20084;-83
2023/08/31 11:45:52;;;;;;;3.83;2.10;;;;;;;;;;5152041;27;20034;-84
2023/08/31 11:48:19;;;;;;;3.42;1.73;;;;;;;;;;5133284;27;20056;-83
2023/08/31 11:50:45;;;;;;;2.38;1.75;;;;;;;;;;5133260;27;20033;-84
2023/08/31 11:53:11;;;;;;;3.45;2.13;;;;;;;;;;5151531;27;20023;-84
2023/08/31 11:55:50;;;;;;;4.18;1.83;;;;;;;;;;5126562;27;20015;-84
2023/08/31 11:58:16;;;;;;;5.93;1.67;;;;;;;;;;5151555;27;20106;-84
2023/08/31 12:00:43;;;;;;;4.55;1.80;;;;;;;;;;5133265;27;20129;-85
2023/08/31 12:03:09;;;;;;;3.22;1.65;;;;;;;;;;5125421;27;20040;-83
2023/08/31 12:05:46;;;;;;;4.22;1.80;;;;;;;;;;5129724;28;20019;-84
2023/08/31 12:08:12;;;;;;;3.03;1.65;;;;;;;;;;5117555;28;20035;-84
2023/08/31 12:10:41;;;;;;;5.97;1.90;;;;;;;;;;5130355;28;20084;-88
2023/08/31 12:13:12;;;;;;;3.00;1.67;;;;;;;;;;5129272;28;20084;-85
2023/08/31 12:15:39;;;;;;;2.88;1.73;;;;;;;;;;5114983;28;20102;-85
2023/08/31 12:18:11;;;;;;;4.18;2.42;;;;;;;;;;5116435;28;20038;-84
2023/08/31 12:20:45;;;;;;;4.47;1.70;;;;;;;;;;5113962;28;20020;-85
2023/08/31 12:23:11;;;;;;;3.97;1.40;;;;;;;;;;5115407;28;20035;-84
2023/08/31 12:25:37;;;;;;;3.03;1.42;;;;;;;;;;5114223;28;20031;-85
2023/08/31 12:28:03;;;;;;;2.85;1.38;;;;;;;;;;5114683;28;20023;-84
2023/08/31 12:30:30;;;;;;;7.05;1.10;;;;;;;;;;5114108;28;20033;-85
2023/08/31 12:32:56;;;;;;;2.75;1.25;;;;;;;;;;5115341;28;20435;-84
2023/08/31 12:35:22;;;;;;;2.13;1.00;;;;;;;;;;5114671;28;20028;-83
2023/08/31 12:37:48;;;;;;;4.78;1.80;;;;;;;;;;5113329;28;20102;-83
2023/08/31 12:40:15;;;;;;;2.65;1.38;;;;;;;;;;5113659;28;20137;-84
2023/08/31 12:42:41;;;;;;;3.80;1.33;;;;;;;;;;5116541;28;20028;-83
2023/08/31 12:45:08;;;;;;;2.58;1.10;;;;;;;;;;5115260;28;20419;-84
2023/08/31 12:47:35;;;;;;;2.90;1.48;;;;;;;;;;5115280;28;20023;-83
2023/08/31 12:50:03;;;;;;;2.75;1.42;;;;;;;;;;5116783;28;20027;-84
2023/08/31 12:52:30;;;;;;;4.22;1.48;;;;;;;;;;5114961;28;20032;-84
2023/08/31 12:54:56;;;;;;;4.15;1.48;;;;;;;;;;5114511;28;20122;-84
2023/08/31 13:05:05;;;;;;;3.08;1.25;;;;;;;;;;5097815;27;20183;-84
2023/08/31 13:07:34;;;;;;;3.60;1.45;;;;;;;;;;5075400;28;20462;-84
2023/08/31 13:10:03;;;;;;;2.15;1.27;;;;;;;;;;5110461;28;20027;-84
2023/08/31 13:12:30;;;;;;;4.05;1.50;;;;;;;;;;5074265;28;20427;-83
2023/08/31 13:14:57;;;;;;;5.90;1.65;;;;;;;;;;5072788;28;20025;-83
2023/08/31 13:17:26;;;;;;;1.98;1.38;;;;;;;;;;5075380;28;20023;-85
2023/08/31 13:19:57;;;;;;;2.10;1.33;;;;;;;;;;5075152;28;20115;-86
2023/08/31 13:22:23;;;;;;;2.35;1.10;;;;;;;;;;5085122;28;20032;-85
2023/08/31 13:24:50;;;;;;;2.42;1.30;;;;;;;;;;5077640;28;20051;-86
2023/08/31 13:27:16;;;;;;;6.57;1.67;;;;;;;;;;5107948;28;20031;-85
2023/08/31 13:29:43;;;;;;;5.15;1.23;;;;;;;;;;5081924;28;20447;-86
2023/08/31 13:32:09;;;;;;;3.13;1.67;;;;;;;;;;5072573;28;20035;-86
2023/08/31 13:34:36;;;;;;;5.80;1.30;;;;;;;;;;5072153;28;20119;-85
2023/08/31 13:37:03;;;;;;;3.22;0.93;;;;;;;;;;5104770;28;20016;-87
2023/08/31 13:39:29;;;;;;;3.78;1.27;;;;;;;;;;5081289;28;20028;-87
2023/08/31 13:41:55;;;;;;;2.78;1.40;;;;;;;;;;5072549;28;20110;-87
2023/08/31 13:44:21;;;;;;;2.50;1.40;;;;;;;;;;5072029;28;20024;-86
2023/08/31 13:46:48;;;;;;;5.65;1.17;;;;;;;;;;5072127;28;20031;-87
2023/08/31 13:49:14;;;;;;;4.03;1.67;;;;;;;;;;5072481;28;20383;-86
2023/08/31 13:51:41;;;;;;;4.97;1.40;;;;;;;;;;5071834;28;20405;-87
2023/08/31 13:54:07;;;;;;;3.97;1.80;;;;;;;;;;5071934;28;20063;-87
2023/08/31 13:56:34;;;;;;;5.70;1.77;;;;;;;;;;5072315;28;20117;-85
2023/08/31 13:59:00;;;;;;;4.43;1.50;;;;;;;;;;5072075;28;20035;-86
2023/08/31 14:01:26;;;;;;;2.67;1.50;;;;;;;;;;5064556;28;20417;-87
2023/08/31 14:03:53;;;;;;;3.88;1.90;;;;;;;;;;5085357;28;20051;-87
2023/08/31 14:06:19;;;;;;;2.00;1.33;;;;;;;;;;5086939;28;20025;-85
2023/08/31 14:08:45;;;;;;;2.35;1.73;;;;;;;;;;5078370;28;20424;-86
2023/08/31 14:11:11;;;;;;;2.78;1.50;;;;;;;;;;5081928;28;20081;-85
2023/08/31 14:13:37;;;;;;;2.67;1.60;;;;;;;;;;5071760;28;20042;-89
2023/08/31 14:16:04;;;;;;;2.33;1.30;;;;;;;;;;5064424;28;20071;-86
2023/08/31 14:18:31;;;;;;;7.95;1.88;;;;;;;;;;5058366;28;20031;-84
2023/08/31 14:20:58;;;;;;;5.40;1.70;;;;;;;;;;5058527;28;20031;-84
2023/08/31 14:23:25;;;;;;;4.80;1.73;;;;;;;;;;5058063;28;20031;-83
2023/08/31 14:25:51;;;;;;;4.40;1.80;;;;;;;;;;5058252;28;20028;-82
2023/08/31 14:28:17;;;;;;;4.05;1.90;;;;;;;;;;5075334;28;20022;-82
2023/08/31 14:30:43;;;;;;;7.53;1.85;;;;;;;;;;5078081;28;20059;-82
2023/08/31 14:33:09;;;;;;;3.45;1.80;;;;;;;;;;5058124;28;20040;-82
2023/08/31 14:35:39;;;;;;;6.10;2.28;;;;;;;;;;5057935;28;20028;-83
2023/08/31 14:38:06;;;;;;;4.18;2.17;;;;;;;;;;5076069;28;20455;-83
2023/08/31 14:40:34;;;;;;;4.78;2.60;;;;;;;;;;5057832;28;20028;-83
2023/08/31 14:43:00;;;;;;;5.63;2.40;;;;;;;;;;5058766;28;20029;-83
2023/08/31 14:45:26;;;;;;;3.78;2.50;;;;;;;;;;5077595;28;20074;-84
2023/08/31 14:47:52;;;;;;;7.43;2.90;;;;;;;;;;5076800;28;20417;-84
2023/08/31 14:50:20;;;;;;;5.00;2.80;;;;;;;;;;5066521;28;20464;-84
2023/08/31 14:52:48;;;;;;;4.22;3.20;;;;;;;;;;5062612;28;20646;-86
